createdAt,value
2023-01-18T00:00:28.518Z,3.90
2023-01-18T00:04:39.554Z,3.72
2023-01-18T00:06:44.488Z,3.80
2023-01-18T00:08:51.966Z,4.00
2023-01-18T00:10:56.817Z,4.07
2023-01-18T00:13:01.862Z,4.63
2023-01-18T00:15:07.084Z,4.93
2023-01-18T00:19:19.387Z,4.35
2023-01-18T00:21:24.828Z,4.78
2023-01-18T00:23:29.621Z,4.75
2023-01-18T00:25:37.085Z,4.70
2023-01-18T00:27:42.195Z,5.25
2023-01-18T00:29:50.249Z,4.65
2023-01-18T00:31:55.488Z,4.43
2023-01-18T00:34:00.376Z,4.70
2023-01-18T00:36:07.173Z,4.57
2023-01-18T00:38:13.517Z,4.30
2023-01-18T00:40:18.564Z,4.60
2023-01-18T00:44:43.185Z,5.55
2023-01-18T00:46:50.070Z,4.18
2023-01-18T00:48:55.661Z,4.38
2023-01-18T00:51:00.506Z,4.47
2023-01-18T00:53:05.295Z,4.82
2023-01-18T00:55:12.585Z,4.50
2023-01-18T00:57:17.410Z,5.00
2023-01-18T00:59:24.787Z,4.50
2023-01-18T01:01:29.791Z,4.72
2023-01-18T01:03:55.122Z,5.63
2023-01-18T01:06:12.421Z,5.43
2023-01-18T01:08:17.377Z,4.90
2023-01-18T01:10:22.611Z,5.00
2023-01-18T01:15:01.527Z,5.63
2023-01-18T01:17:18.814Z,4.88
2023-01-18T01:19:36.087Z,5.13
2023-01-18T01:21:54.033Z,5.28
2023-01-18T01:24:11.345Z,5.28
2023-01-18T01:26:16.452Z,5.40
2023-01-18T01:28:21.267Z,4.90
2023-01-18T01:30:28.739Z,4.95
2023-01-18T01:32:35.365Z,4.45
2023-01-18T01:34:40.296Z,4.57
2023-01-18T01:36:45.076Z,4.38
2023-01-18T01:38:50.288Z,4.85
2023-01-18T01:41:07.390Z,4.80
2023-01-18T01:43:15.442Z,5.63
2023-01-18T01:45:20.911Z,5.53
2023-01-18T01:47:37.384Z,5.05
2023-01-18T01:49:45.694Z,5.82
2023-01-18T01:51:54.578Z,5.25
2023-01-18T01:54:03.797Z,5.93
2023-01-18T01:56:08.971Z,5.57
2023-01-18T02:00:24.586Z,4.85
2023-01-18T02:02:33.641Z,5.32
2023-01-18T02:04:38.902Z,5.82
2023-01-18T02:06:44.234Z,5.45
2023-01-18T02:08:52.079Z,4.65
2023-01-18T02:10:57.176Z,5.07
2023-01-18T02:13:03.083Z,4.85
2023-01-18T02:15:09.607Z,5.43
2023-01-18T02:17:33.757Z,5.60
2023-01-18T02:20:11.479Z,4.85
2023-01-18T02:22:29.503Z,5.63
2023-01-18T02:25:10.863Z,5.22
2023-01-18T02:27:24.985Z,5.80
2023-01-18T02:30:05.290Z,5.50
2023-01-18T02:32:24.885Z,6.00
2023-01-18T02:34:40.780Z,5.68
2023-01-18T02:39:00.622Z,5.72
2023-01-18T02:41:15.590Z,6.05
2023-01-18T02:43:35.115Z,5.57
2023-01-18T02:45:58.243Z,6.20
2023-01-18T02:48:05.028Z,5.75
2023-01-18T02:50:10.885Z,5.20
2023-01-18T02:52:43.443Z,5.60
2023-01-18T02:54:50.562Z,5.53
2023-01-18T02:56:56.798Z,5.82
2023-01-18T02:59:07.471Z,5.20
2023-01-18T03:01:22.427Z,5.93
2023-01-18T03:03:28.663Z,5.28
2023-01-18T03:05:34.552Z,5.95
2023-01-18T03:07:48.756Z,6.00
2023-01-18T03:09:54.421Z,5.72
2023-01-18T03:12:04.174Z,5.22
2023-01-18T03:14:23.480Z,6.03
2023-01-18T03:16:42.593Z,6.13
2023-01-18T03:19:04.979Z,7.18
2023-01-18T03:21:08.531Z,6.97
2023-01-18T03:23:31.601Z,6.10
2023-01-18T03:25:41.363Z,6.78
2023-01-18T03:28:01.952Z,6.65
2023-01-18T03:30:20.563Z,6.13
2023-01-18T03:32:40.615Z,6.18
2023-01-18T03:34:52.242Z,6.35
2023-01-18T03:37:01.087Z,6.38
2023-01-18T03:39:09.196Z,5.95
2023-01-18T03:41:16.509Z,6.13
2023-01-18T03:43:25.428Z,6.40
2023-01-18T03:45:33.610Z,6.28
2023-01-18T03:47:41.316Z,5.78
2023-01-18T03:49:46.292Z,6.05
2023-01-18T03:52:02.735Z,6.47
2023-01-18T03:54:16.761Z,6.47
2023-01-18T03:56:26.256Z,6.55
2023-01-18T03:58:36.065Z,7.43
2023-01-18T04:00:42.298Z,6.90
2023-01-18T04:02:51.781Z,6.30
2023-01-18T04:04:57.645Z,6.03
2023-01-18T04:07:02.699Z,6.75
2023-01-18T04:09:11.985Z,5.90
2023-01-18T04:11:16.872Z,6.35
2023-01-18T04:13:21.680Z,6.82
2023-01-18T04:15:26.681Z,6.82
2023-01-18T04:17:31.469Z,5.93
2023-01-18T04:19:40.651Z,7.07
2023-01-18T04:21:45.465Z,7.00
2023-01-18T04:23:50.370Z,7.00
2023-01-18T04:25:55.326Z,7.03
2023-01-18T04:28:00.132Z,6.97
2023-01-18T04:30:06.382Z,6.22
2023-01-18T04:32:11.372Z,6.18
2023-01-18T04:34:16.323Z,6.45
2023-01-18T04:36:24.437Z,6.00
2023-01-18T04:38:29.546Z,6.68
2023-01-18T04:40:34.372Z,6.78
2023-01-18T04:42:39.204Z,6.47
2023-01-18T04:44:44.152Z,6.25
2023-01-18T04:46:49.215Z,6.57
2023-01-18T04:50:59.305Z,6.45
2023-01-18T04:53:06.745Z,6.68
2023-01-18T04:55:15.953Z,7.18
2023-01-18T04:57:21.366Z,7.07
2023-01-18T04:59:26.137Z,6.93
2023-01-18T05:01:31.099Z,7.50
2023-01-18T05:03:38.474Z,7.00
2023-01-18T05:05:43.384Z,6.68
2023-01-18T05:07:48.451Z,6.38
2023-01-18T05:09:57.146Z,7.32
2023-01-18T05:12:01.923Z,7.68
2023-01-18T05:14:06.790Z,7.18
2023-01-18T05:16:16.823Z,6.47
2023-01-18T05:18:21.694Z,6.80
2023-01-18T05:20:26.498Z,7.50
2023-01-18T05:22:33.156Z,8.15
2023-01-18T05:24:37.987Z,7.13
2023-01-18T05:26:45.358Z,8.13
2023-01-18T05:28:51.322Z,7.22
2023-01-18T05:30:57.156Z,8.48
2023-01-18T05:33:03.458Z,7.35
2023-01-18T05:35:09.840Z,6.65
2023-01-18T05:37:14.759Z,8.52
2023-01-18T05:39:19.524Z,8.55
2023-01-18T05:41:24.968Z,8.65
2023-01-18T05:43:34.553Z,8.35
2023-01-18T05:45:40.483Z,10.05
2023-01-18T05:47:45.627Z,10.30
2023-01-18T05:49:50.463Z,11.02
2023-01-18T05:51:55.277Z,10.68
2023-01-18T05:54:00.257Z,9.57
2023-01-18T05:56:08.000Z,11.05
2023-01-18T05:58:12.865Z,10.18
2023-01-18T06:00:21.516Z,10.07
2023-01-18T06:02:27.476Z,10.48
2023-01-18T06:04:32.276Z,10.38
2023-01-18T06:06:37.344Z,13.80
2023-01-18T06:08:42.178Z,11.23
2023-01-18T06:10:50.373Z,9.90
2023-01-18T06:12:55.206Z,10.20
2023-01-18T06:15:00.660Z,10.70
2023-01-18T06:17:09.008Z,10.80
2023-01-18T06:19:13.995Z,10.23
2023-01-18T06:21:19.083Z,11.63
2023-01-18T06:23:24.640Z,10.68
2023-01-18T06:25:29.525Z,9.70
2023-01-18T06:27:34.352Z,11.00
2023-01-18T06:29:39.139Z,10.18
2023-01-18T06:31:44.166Z,8.38
2023-01-18T06:33:52.101Z,9.90
2023-01-18T06:35:56.947Z,10.25
2023-01-18T06:38:01.801Z,10.65
2023-01-18T06:40:07.726Z,9.63
2023-01-18T06:42:12.882Z,10.27
2023-01-18T06:46:25.180Z,11.50
2023-01-18T06:48:30.579Z,10.57
2023-01-18T06:50:38.087Z,10.98
2023-01-18T06:52:43.632Z,9.30
2023-01-18T06:54:50.715Z,10.95
2023-01-18T06:56:55.492Z,10.68
2023-01-18T06:59:01.232Z,10.90
2023-01-18T07:01:07.099Z,12.38
2023-01-18T07:03:12.395Z,11.05
2023-01-18T07:07:24.473Z,13.07
2023-01-18T07:09:29.475Z,12.90
2023-01-18T07:11:35.838Z,11.75
2023-01-18T07:13:43.753Z,12.15
2023-01-18T07:15:51.237Z,12.10
2023-01-18T07:17:56.075Z,12.15
2023-01-18T07:20:00.988Z,13.35
2023-01-18T07:22:05.968Z,12.73
2023-01-18T07:24:13.519Z,13.23
2023-01-18T07:26:19.927Z,15.27
2023-01-18T07:28:24.793Z,15.35
2023-01-18T07:30:29.683Z,16.45
2023-01-18T07:32:34.524Z,15.73
2023-01-18T07:34:39.323Z,17.88
2023-01-18T07:36:44.442Z,19.02
2023-01-18T07:38:50.090Z,19.80
2023-01-18T07:41:02.247Z,21.83
2023-01-18T07:43:07.190Z,19.45
2023-01-18T07:45:14.059Z,20.92
2023-01-18T07:47:18.889Z,19.88
2023-01-18T07:49:23.718Z,18.77
2023-01-18T07:51:28.657Z,19.17
2023-01-18T07:53:34.843Z,21.38
2023-01-18T07:55:40.847Z,22.33
2023-01-18T07:57:48.576Z,19.80
2023-01-18T07:59:53.481Z,20.88
2023-01-18T08:01:58.453Z,21.42
2023-01-18T08:04:03.282Z,20.20
2023-01-18T08:06:10.267Z,20.60
2023-01-18T08:08:16.587Z,20.60
2023-01-18T08:10:21.492Z,22.90
2023-01-18T08:12:26.333Z,25.38
2023-01-18T08:14:33.705Z,21.52
2023-01-18T08:16:38.710Z,20.55
2023-01-18T08:18:45.619Z,22.60
2023-01-18T08:20:54.340Z,19.83
2023-01-18T08:23:01.673Z,20.50
2023-01-18T08:25:07.146Z,19.65
2023-01-18T08:27:11.935Z,19.27
2023-01-18T08:29:16.919Z,18.65
2023-01-18T08:31:24.985Z,19.00
2023-01-18T08:33:30.088Z,17.90
2023-01-18T08:35:37.614Z,18.85
2023-01-18T08:37:42.404Z,19.67
2023-01-18T08:39:47.435Z,19.95
2023-01-18T08:43:57.784Z,18.38
2023-01-18T08:46:02.863Z,19.08
2023-01-18T08:48:12.773Z,20.23
2023-01-18T08:50:17.615Z,19.33
2023-01-18T08:52:22.360Z,18.45
2023-01-18T08:54:27.380Z,17.98
2023-01-18T08:56:32.238Z,19.35
2023-01-18T08:58:37.181Z,16.80
2023-01-18T09:00:42.389Z,18.67
2023-01-18T09:02:49.607Z,17.00
2023-01-18T09:04:57.052Z,18.60
2023-01-18T09:07:01.892Z,16.50
2023-01-18T09:09:06.757Z,15.00
2023-01-18T09:11:13.609Z,14.57
2023-01-18T09:13:18.382Z,14.95
2023-01-18T09:15:23.296Z,15.88
2023-01-18T09:17:28.555Z,16.80
2023-01-18T09:19:33.399Z,15.32
2023-01-18T09:21:40.864Z,17.02
2023-01-18T09:23:46.556Z,15.75
2023-01-18T09:25:51.949Z,14.45
2023-01-18T09:27:56.889Z,14.73
2023-01-18T09:30:01.716Z,15.60
2023-01-18T09:32:08.254Z,13.98
2023-01-18T09:34:19.683Z,14.85
2023-01-18T09:36:27.057Z,14.65
2023-01-18T09:38:36.951Z,13.27
2023-01-18T09:40:48.060Z,13.20
2023-01-18T09:42:54.741Z,10.32
2023-01-18T09:45:02.513Z,20.10
2023-01-18T09:47:14.220Z,12.85
2023-01-18T09:49:24.812Z,12.02
2023-01-18T09:51:34.306Z,11.98
2023-01-18T09:53:57.271Z,11.45
2023-01-18T09:56:08.426Z,10.98
2023-01-18T09:58:27.904Z,12.13
2023-01-18T10:00:36.653Z,11.00
2023-01-18T10:02:41.928Z,9.85
